sensor_id;sensor_type;location;lat;lon;timestamp;temperature;humidity
18898;DHT22;9581;49.484;8.556;2023-12-04T00:00:02;-0.90;99.90
18898;DHT22;9581;49.484;8.556;2023-12-04T00:02:30;-1.00;99.90
18898;DHT22;9581;49.484;8.556;2023-12-04T00:04:56;-1.10;99.90
18898;DHT22;9581;49.484;8.556;2023-12-04T00:07:23;-1.10;99.90
18898;DHT22;9581;49.484;8.556;2023-12-04T00:09:50;-1.10;99.90
18898;DHT22;9581;49.484;8.556;2023-12-04T00:12:17;-1.10;99.90
18898;DHT22;9581;49.484;8.556;2023-12-04T00:14:43;-1.00;99.90
18898;DHT22;9581;49.484;8.556;2023-12-04T00:17:12;-1.10;99.90
18898;DHT22;9581;49.484;8.556;2023-12-04T00:19:38;-1.10;99.90
18898;DHT22;9581;49.484;8.556;2023-12-04T00:22:05;-0.90;99.90
18898;DHT22;9581;49.484;8.556;2023-12-04T00:24:32;-0.70;99.90
18898;DHT22;9581;49.484;8.556;2023-12-04T00:26:59;-0.70;99.90
18898;DHT22;9581;49.484;8.556;2023-12-04T00:29:25;-0.50;99.90
18898;DHT22;9581;49.484;8.556;2023-12-04T00:31:52;-0.40;99.90
18898;DHT22;9581;49.484;8.556;2023-12-04T00:34:20;-0.60;99.90
18898;DHT22;9581;49.484;8.556;2023-12-04T00:36:47;-0.60;99.90
18898;DHT22;9581;49.484;8.556;2023-12-04T00:39:14;-0.70;99.90
18898;DHT22;9581;49.484;8.556;2023-12-04T00:41:41;-0.70;99.90
18898;DHT22;9581;49.484;8.556;2023-12-04T00:44:08;-0.90;99.90
18898;DHT22;9581;49.484;8.556;2023-12-04T00:46:34;-0.80;99.90
18898;DHT22;9581;49.484;8.556;2023-12-04T00:49:01;-0.70;99.90
18898;DHT22;9581;49.484;8.556;2023-12-04T00:51:37;-0.80;99.90
18898;DHT22;9581;49.484;8.556;2023-12-04T00:54:03;-0.90;99.90
18898;DHT22;9581;49.484;8.556;2023-12-04T00:56:30;-1.10;99.90
18898;DHT22;9581;49.484;8.556;2023-12-04T00:58:57;-1.20;99.90
18898;DHT22;9581;49.484;8.556;2023-12-04T01:01:24;-1.30;99.90
18898;DHT22;9581;49.484;8.556;2023-12-04T01:03:50;-1.00;99.90
18898;DHT22;9581;49.484;8.556;2023-12-04T01:06:21;-1.20;99.90
18898;DHT22;9581;49.484;8.556;2023-12-04T01:08:50;-1.30;99.90
18898;DHT22;9581;49.484;8.556;2023-12-04T01:11:17;-1.50;99.90
18898;DHT22;9581;49.484;8.556;2023-12-04T01:13:45;-1.40;99.90
18898;DHT22;9581;49.484;8.556;2023-12-04T01:16:12;-1.50;99.90
18898;DHT22;9581;49.484;8.556;2023-12-04T01:18:39;-1.50;99.90
18898;DHT22;9581;49.484;8.556;2023-12-04T01:21:06;-1.50;99.90
18898;DHT22;9581;49.484;8.556;2023-12-04T01:23:34;-1.70;99.90
18898;DHT22;9581;49.484;8.556;2023-12-04T01:26:03;-1.90;99.90
18898;DHT22;9581;49.484;8.556;2023-12-04T01:28:30;-1.80;99.90
18898;DHT22;9581;49.484;8.556;2023-12-04T01:30:57;-1.70;99.90
18898;DHT22;9581;49.484;8.556;2023-12-04T01:33:24;-1.60;99.90
18898;DHT22;9581;49.484;8.556;2023-12-04T01:35:50;-1.60;99.90
18898;DHT22;9581;49.484;8.556;2023-12-04T01:38:18;-1.60;99.90
18898;DHT22;9581;49.484;8.556;2023-12-04T01:40:44;-1.50;99.90
18898;DHT22;9581;49.484;8.556;2023-12-04T01:43:12;-1.20;99.90
18898;DHT22;9581;49.484;8.556;2023-12-04T01:45:40;-1.20;99.90
18898;DHT22;9581;49.484;8.556;2023-12-04T01:48:08;-1.40;99.90
18898;DHT22;9581;49.484;8.556;2023-12-04T01:50:35;-1.00;99.90
18898;DHT22;9581;49.484;8.556;2023-12-04T01:53:03;-1.30;99.90
18898;DHT22;9581;49.484;8.556;2023-12-04T01:55:29;-1.40;99.90
18898;DHT22;9581;49.484;8.556;2023-12-04T01:57:57;-1.10;99.90
18898;DHT22;9581;49.484;8.556;2023-12-04T02:00:26;-1.60;99.90
18898;DHT22;9581;49.484;8.556;2023-12-04T02:02:53;-1.40;99.90
18898;DHT22;9581;49.484;8.556;2023-12-04T02:05:21;-1.60;99.90
18898;DHT22;9581;49.484;8.556;2023-12-04T02:07:49;-1.50;99.90
18898;DHT22;9581;49.484;8.556;2023-12-04T02:10:16;-1.60;99.90
18898;DHT22;9581;49.484;8.556;2023-12-04T02:12:43;-1.50;99.90
18898;DHT22;9581;49.484;8.556;2023-12-04T02:15:10;-1.00;99.90
18898;DHT22;9581;49.484;8.556;2023-12-04T02:17:39;-1.00;99.90
18898;DHT22;9581;49.484;8.556;2023-12-04T02:20:07;-1.30;99.90
18898;DHT22;9581;49.484;8.556;2023-12-04T02:22:34;-1.40;99.90
18898;DHT22;9581;49.484;8.556;2023-12-04T02:25:03;-1.50;99.90
18898;DHT22;9581;49.484;8.556;2023-12-04T02:27:37;-1.60;99.90
18898;DHT22;9581;49.484;8.556;2023-12-04T02:30:06;-1.20;99.90
18898;DHT22;9581;49.484;8.556;2023-12-04T02:32:37;-1.40;99.90
18898;DHT22;9581;49.484;8.556;2023-12-04T02:35:06;-1.60;99.90
18898;DHT22;9581;49.484;8.556;2023-12-04T02:37:33;-1.20;99.90
18898;DHT22;9581;49.484;8.556;2023-12-04T02:40:01;-1.40;99.90
18898;DHT22;9581;49.484;8.556;2023-12-04T02:42:30;-1.40;99.90
18898;DHT22;9581;49.484;8.556;2023-12-04T02:44:57;-1.40;99.90
18898;DHT22;9581;49.484;8.556;2023-12-04T02:47:24;-1.30;99.90
18898;DHT22;9581;49.484;8.556;2023-12-04T02:49:50;-1.10;99.90
18898;DHT22;9581;49.484;8.556;2023-12-04T02:52:18;-1.40;99.90
18898;DHT22;9581;49.484;8.556;2023-12-04T02:54:45;-1.70;99.90
18898;DHT22;9581;49.484;8.556;2023-12-04T02:57:12;-1.80;99.90
18898;DHT22;9581;49.484;8.556;2023-12-04T02:59:40;-1.50;99.90
18898;DHT22;9581;49.484;8.556;2023-12-04T03:02:06;-1.90;99.90
18898;DHT22;9581;49.484;8.556;2023-12-04T03:04:34;-1.90;99.90
18898;DHT22;9581;49.484;8.556;2023-12-04T03:07:01;-1.70;99.90
18898;DHT22;9581;49.484;8.556;2023-12-04T03:09:28;-1.30;99.90
18898;DHT22;9581;49.484;8.556;2023-12-04T03:11:55;-1.10;99.90
18898;DHT22;9581;49.484;8.556;2023-12-04T03:14:22;-1.60;99.90
18898;DHT22;9581;49.484;8.556;2023-12-04T03:16:50;-1.80;99.90
18898;DHT22;9581;49.484;8.556;2023-12-04T03:19:17;-1.70;99.90
18898;DHT22;9581;49.484;8.556;2023-12-04T03:21:44;-1.50;99.90
18898;DHT22;9581;49.484;8.556;2023-12-04T03:24:10;-1.90;99.90
18898;DHT22;9581;49.484;8.556;2023-12-04T03:26:37;-1.70;99.90
18898;DHT22;9581;49.484;8.556;2023-12-04T03:29:04;-1.50;99.90
18898;DHT22;9581;49.484;8.556;2023-12-04T03:31:31;-1.50;99.90
18898;DHT22;9581;49.484;8.556;2023-12-04T03:34:01;-1.80;99.90
18898;DHT22;9581;49.484;8.556;2023-12-04T03:36:28;-1.70;99.90
18898;DHT22;9581;49.484;8.556;2023-12-04T03:38:54;-1.40;99.90
18898;DHT22;9581;49.484;8.556;2023-12-04T03:41:21;-1.50;99.90
18898;DHT22;9581;49.484;8.556;2023-12-04T03:43:48;-1.60;99.90
18898;DHT22;9581;49.484;8.556;2023-12-04T03:46:15;-1.80;99.90
18898;DHT22;9581;49.484;8.556;2023-12-04T03:48:42;-1.90;99.90
18898;DHT22;9581;49.484;8.556;2023-12-04T03:51:10;-1.80;99.90
18898;DHT22;9581;49.484;8.556;2023-12-04T03:53:37;-1.60;99.90
18898;DHT22;9581;49.484;8.556;2023-12-04T03:56:04;-1.60;99.90
18898;DHT22;9581;49.484;8.556;2023-12-04T03:58:32;-1.70;99.90
18898;DHT22;9581;49.484;8.556;2023-12-04T04:00:58;-1.70;99.90
18898;DHT22;9581;49.484;8.556;2023-12-04T04:03:25;-1.30;99.90
18898;DHT22;9581;49.484;8.556;2023-12-04T04:05:52;-1.10;99.90
18898;DHT22;9581;49.484;8.556;2023-12-04T04:08:20;-1.00;99.90
18898;DHT22;9581;49.484;8.556;2023-12-04T04:10:47;-1.30;99.90
18898;DHT22;9581;49.484;8.556;2023-12-04T04:13:13;-1.00;99.90
18898;DHT22;9581;49.484;8.556;2023-12-04T04:15:41;-1.20;99.90
18898;DHT22;9581;49.484;8.556;2023-12-04T04:18:07;-1.30;99.90
18898;DHT22;9581;49.484;8.556;2023-12-04T04:20:34;-1.20;99.90
18898;DHT22;9581;49.484;8.556;2023-12-04T04:23:01;-1.40;99.90
18898;DHT22;9581;49.484;8.556;2023-12-04T04:25:29;-1.80;99.90
18898;DHT22;9581;49.484;8.556;2023-12-04T04:27:56;-1.30;99.90
18898;DHT22;9581;49.484;8.556;2023-12-04T04:30:23;-1.40;99.90
18898;DHT22;9581;49.484;8.556;2023-12-04T04:32:49;-1.40;99.90
18898;DHT22;9581;49.484;8.556;2023-12-04T04:35:16;-1.60;99.90
18898;DHT22;9581;49.484;8.556;2023-12-04T04:37:43;-1.50;99.90
18898;DHT22;9581;49.484;8.556;2023-12-04T04:40:10;-1.60;99.90
18898;DHT22;9581;49.484;8.556;2023-12-04T04:42:38;-1.60;99.90
18898;DHT22;9581;49.484;8.556;2023-12-04T04:45:06;-1.20;99.90
18898;DHT22;9581;49.484;8.556;2023-12-04T04:47:33;-1.10;99.90
18898;DHT22;9581;49.484;8.556;2023-12-04T04:49:59;-1.00;99.90
18898;DHT22;9581;49.484;8.556;2023-12-04T04:52:26;-1.00;99.90
18898;DHT22;9581;49.484;8.556;2023-12-04T04:54:53;-1.30;99.90
18898;DHT22;9581;49.484;8.556;2023-12-04T04:57:20;-1.50;99.90
18898;DHT22;9581;49.484;8.556;2023-12-04T04:59:48;-1.50;99.90
18898;DHT22;9581;49.484;8.556;2023-12-04T05:02:14;-1.40;99.90
18898;DHT22;9581;49.484;8.556;2023-12-04T05:04:41;-1.50;99.90
18898;DHT22;9581;49.484;8.556;2023-12-04T05:07:08;-1.60;99.90
18898;DHT22;9581;49.484;8.556;2023-12-04T05:09:35;-1.40;99.90
18898;DHT22;9581;49.484;8.556;2023-12-04T05:12:02;-1.60;99.90
18898;DHT22;9581;49.484;8.556;2023-12-04T05:14:29;-1.50;99.90
18898;DHT22;9581;49.484;8.556;2023-12-04T05:16:57;-1.50;99.90
18898;DHT22;9581;49.484;8.556;2023-12-04T05:19:24;-1.60;99.90
18898;DHT22;9581;49.484;8.556;2023-12-04T05:21:50;-1.40;99.90
18898;DHT22;9581;49.484;8.556;2023-12-04T05:24:17;-1.40;99.90
18898;DHT22;9581;49.484;8.556;2023-12-04T05:26:44;-1.50;99.90
18898;DHT22;9581;49.484;8.556;2023-12-04T05:29:11;-1.70;99.90
18898;DHT22;9581;49.484;8.556;2023-12-04T05:31:37;-1.60;99.90
18898;DHT22;9581;49.484;8.556;2023-12-04T05:34:05;-1.30;99.90
18898;DHT22;9581;49.484;8.556;2023-12-04T05:36:32;-1.30;99.90
18898;DHT22;9581;49.484;8.556;2023-12-04T05:38:59;-1.70;99.90
18898;DHT22;9581;49.484;8.556;2023-12-04T05:41:26;-1.70;99.90
18898;DHT22;9581;49.484;8.556;2023-12-04T05:43:52;-1.60;99.90
18898;DHT22;9581;49.484;8.556;2023-12-04T05:46:19;-1.80;99.90
18898;DHT22;9581;49.484;8.556;2023-12-04T05:48:46;-1.90;99.90
18898;DHT22;9581;49.484;8.556;2023-12-04T05:51:14;-1.50;99.90
18898;DHT22;9581;49.484;8.556;2023-12-04T05:53:41;-1.70;99.90
18898;DHT22;9581;49.484;8.556;2023-12-04T05:56:09;-2.00;99.90
18898;DHT22;9581;49.484;8.556;2023-12-04T05:58:36;-1.90;99.90
18898;DHT22;9581;49.484;8.556;2023-12-04T06:01:03;-1.90;99.90
18898;DHT22;9581;49.484;8.556;2023-12-04T06:03:31;-1.90;99.90
18898;DHT22;9581;49.484;8.556;2023-12-04T06:05:58;-2.00;99.90
18898;DHT22;9581;49.484;8.556;2023-12-04T06:08:26;-1.90;99.90
18898;DHT22;9581;49.484;8.556;2023-12-04T06:10:53;-2.00;99.90
18898;DHT22;9581;49.484;8.556;2023-12-04T06:13:20;-1.70;99.90
18898;DHT22;9581;49.484;8.556;2023-12-04T06:15:46;-1.90;99.90
18898;DHT22;9581;49.484;8.556;2023-12-04T06:18:13;-1.50;99.90
18898;DHT22;9581;49.484;8.556;2023-12-04T06:20:40;-1.40;99.90
18898;DHT22;9581;49.484;8.556;2023-12-04T06:23:07;-1.70;99.90
18898;DHT22;9581;49.484;8.556;2023-12-04T06:25:36;-1.90;99.90
18898;DHT22;9581;49.484;8.556;2023-12-04T06:28:04;-1.40;99.90
18898;DHT22;9581;49.484;8.556;2023-12-04T06:30:31;-1.20;99.90
18898;DHT22;9581;49.484;8.556;2023-12-04T06:32:58;-1.20;99.90
18898;DHT22;9581;49.484;8.556;2023-12-04T06:35:26;-1.40;99.90
18898;DHT22;9581;49.484;8.556;2023-12-04T06:37:54;-1.40;99.90
18898;DHT22;9581;49.484;8.556;2023-12-04T06:40:22;-1.50;99.90
18898;DHT22;9581;49.484;8.556;2023-12-04T06:42:50;-1.20;99.90
18898;DHT22;9581;49.484;8.556;2023-12-04T06:45:18;-1.20;99.90
18898;DHT22;9581;49.484;8.556;2023-12-04T06:47:46;-0.90;99.90
18898;DHT22;9581;49.484;8.556;2023-12-04T06:50:15;-1.20;99.90
18898;DHT22;9581;49.484;8.556;2023-12-04T06:52:42;-1.10;99.90
18898;DHT22;9581;49.484;8.556;2023-12-04T06:55:08;-1.00;99.90
18898;DHT22;9581;49.484;8.556;2023-12-04T06:57:35;-0.90;99.90
18898;DHT22;9581;49.484;8.556;2023-12-04T07:00:04;-0.90;99.90
18898;DHT22;9581;49.484;8.556;2023-12-04T07:02:33;-1.10;99.90
18898;DHT22;9581;49.484;8.556;2023-12-04T07:05:00;-0.80;99.90
18898;DHT22;9581;49.484;8.556;2023-12-04T07:07:28;-1.00;99.90
18898;DHT22;9581;49.484;8.556;2023-12-04T07:09:55;-1.10;99.90
18898;DHT22;9581;49.484;8.556;2023-12-04T07:12:22;-1.50;99.90
18898;DHT22;9581;49.484;8.556;2023-12-04T07:14:48;-1.50;99.90
18898;DHT22;9581;49.484;8.556;2023-12-04T07:17:17;-1.80;99.90
18898;DHT22;9581;49.484;8.556;2023-12-04T07:19:43;-1.60;99.90
18898;DHT22;9581;49.484;8.556;2023-12-04T07:22:10;-1.20;99.90
18898;DHT22;9581;49.484;8.556;2023-12-04T07:24:37;-1.20;99.90
18898;DHT22;9581;49.484;8.556;2023-12-04T07:27:04;-1.40;99.90
18898;DHT22;9581;49.484;8.556;2023-12-04T07:29:32;-1.40;99.90
18898;DHT22;9581;49.484;8.556;2023-12-04T07:31:58;-1.30;99.90
18898;DHT22;9581;49.484;8.556;2023-12-04T07:34:26;-1.30;99.90
18898;DHT22;9581;49.484;8.556;2023-12-04T07:36:53;-1.30;99.90
18898;DHT22;9581;49.484;8.556;2023-12-04T07:39:20;-1.50;99.90
18898;DHT22;9581;49.484;8.556;2023-12-04T07:41:47;-1.50;99.90
18898;DHT22;9581;49.484;8.556;2023-12-04T07:44:14;-1.50;99.90
18898;DHT22;9581;49.484;8.556;2023-12-04T07:46:41;-1.30;99.90
18898;DHT22;9581;49.484;8.556;2023-12-04T07:49:07;-1.20;99.90
18898;DHT22;9581;49.484;8.556;2023-12-04T07:51:35;-1.10;99.90
18898;DHT22;9581;49.484;8.556;2023-12-04T07:54:03;-1.20;99.90
18898;DHT22;9581;49.484;8.556;2023-12-04T07:56:30;-1.10;99.90
18898;DHT22;9581;49.484;8.556;2023-12-04T07:58:57;-1.10;99.90
18898;DHT22;9581;49.484;8.556;2023-12-04T08:01:24;-1.20;99.90
18898;DHT22;9581;49.484;8.556;2023-12-04T08:03:51;-1.00;99.90
18898;DHT22;9581;49.484;8.556;2023-12-04T08:06:17;-0.80;99.90
18898;DHT22;9581;49.484;8.556;2023-12-04T08:08:46;-0.90;99.90
18898;DHT22;9581;49.484;8.556;2023-12-04T08:11:12;-0.90;99.90
18898;DHT22;9581;49.484;8.556;2023-12-04T08:13:39;-0.50;99.90
18898;DHT22;9581;49.484;8.556;2023-12-04T08:16:13;-0.60;99.90
18898;DHT22;9581;49.484;8.556;2023-12-04T08:18:40;-0.70;99.90
18898;DHT22;9581;49.484;8.556;2023-12-04T08:21:07;-0.70;99.90
18898;DHT22;9581;49.484;8.556;2023-12-04T08:23:34;-0.50;99.90
18898;DHT22;9581;49.484;8.556;2023-12-04T08:26:03;-0.10;99.90
18898;DHT22;9581;49.484;8.556;2023-12-04T08:28:30;-0.10;99.90
18898;DHT22;9581;49.484;8.556;2023-12-04T08:30:57;0.00;99.90
18898;DHT22;9581;49.484;8.556;2023-12-04T08:33:24;0.10;99.90
18898;DHT22;9581;49.484;8.556;2023-12-04T08:35:51;-0.20;99.90
18898;DHT22;9581;49.484;8.556;2023-12-04T08:38:17;-0.10;99.90
18898;DHT22;9581;49.484;8.556;2023-12-04T08:40:44;0.20;99.90
18898;DHT22;9581;49.484;8.556;2023-12-04T08:43:12;-0.10;99.90
18898;DHT22;9581;49.484;8.556;2023-12-04T08:45:39;0.20;99.90
18898;DHT22;9581;49.484;8.556;2023-12-04T08:48:06;0.30;99.90
18898;DHT22;9581;49.484;8.556;2023-12-04T08:50:33;0.10;99.90
18898;DHT22;9581;49.484;8.556;2023-12-04T08:53:00;0.70;99.90
18898;DHT22;9581;49.484;8.556;2023-12-04T08:55:28;0.60;99.90
18898;DHT22;9581;49.484;8.556;2023-12-04T08:57:54;0.80;99.90
18898;DHT22;9581;49.484;8.556;2023-12-04T09:00:23;1.00;99.90
18898;DHT22;9581;49.484;8.556;2023-12-04T09:02:49;0.60;99.90
18898;DHT22;9581;49.484;8.556;2023-12-04T09:05:16;0.80;99.90
18898;DHT22;9581;49.484;8.556;2023-12-04T09:07:43;0.70;99.90
18898;DHT22;9581;49.484;8.556;2023-12-04T09:10:10;0.90;99.90
18898;DHT22;9581;49.484;8.556;2023-12-04T09:12:36;0.70;99.90
18898;DHT22;9581;49.484;8.556;2023-12-04T09:15:04;1.00;99.90
18898;DHT22;9581;49.484;8.556;2023-12-04T09:17:34;0.80;99.90
18898;DHT22;9581;49.484;8.556;2023-12-04T09:20:00;0.80;99.90
18898;DHT22;9581;49.484;8.556;2023-12-04T09:22:28;0.60;99.90
18898;DHT22;9581;49.484;8.556;2023-12-04T09:24:55;0.70;99.90
18898;DHT22;9581;49.484;8.556;2023-12-04T09:27:23;0.90;99.90
18898;DHT22;9581;49.484;8.556;2023-12-04T09:29:49;1.30;99.90
18898;DHT22;9581;49.484;8.556;2023-12-04T09:32:16;1.40;99.90
18898;DHT22;9581;49.484;8.556;2023-12-04T09:34:45;1.20;99.90
18898;DHT22;9581;49.484;8.556;2023-12-04T09:37:12;0.60;99.90
18898;DHT22;9581;49.484;8.556;2023-12-04T09:39:39;0.90;99.90
18898;DHT22;9581;49.484;8.556;2023-12-04T09:42:07;1.00;99.90
18898;DHT22;9581;49.484;8.556;2023-12-04T09:44:36;0.90;99.90
18898;DHT22;9581;49.484;8.556;2023-12-04T09:47:03;0.90;99.90
18898;DHT22;9581;49.484;8.556;2023-12-04T09:49:31;0.80;99.90
18898;DHT22;9581;49.484;8.556;2023-12-04T09:52:01;1.10;99.90
18898;DHT22;9581;49.484;8.556;2023-12-04T09:54:28;1.30;99.90
18898;DHT22;9581;49.484;8.556;2023-12-04T09:56:56;0.90;99.90
18898;DHT22;9581;49.484;8.556;2023-12-04T09:59:24;1.20;99.90
18898;DHT22;9581;49.484;8.556;2023-12-04T10:01:51;1.20;99.90
18898;DHT22;9581;49.484;8.556;2023-12-04T10:04:19;1.40;99.90
18898;DHT22;9581;49.484;8.556;2023-12-04T10:06:48;1.80;99.90
18898;DHT22;9581;49.484;8.556;2023-12-04T10:09:17;1.90;99.90
18898;DHT22;9581;49.484;8.556;2023-12-04T10:11:45;2.00;99.90
18898;DHT22;9581;49.484;8.556;2023-12-04T10:14:15;2.20;99.90
18898;DHT22;9581;49.484;8.556;2023-12-04T10:16:43;2.20;99.90
18898;DHT22;9581;49.484;8.556;2023-12-04T10:19:18;2.10;99.90
18898;DHT22;9581;49.484;8.556;2023-12-04T10:21:46;2.00;99.90
18898;DHT22;9581;49.484;8.556;2023-12-04T10:24:28;1.70;99.90
18898;DHT22;9581;49.484;8.556;2023-12-04T10:26:55;1.90;99.90
18898;DHT22;9581;49.484;8.556;2023-12-04T10:29:24;1.70;99.90
18898;DHT22;9581;49.484;8.556;2023-12-04T10:31:53;1.90;99.90
18898;DHT22;9581;49.484;8.556;2023-12-04T10:34:21;1.60;99.90
18898;DHT22;9581;49.484;8.556;2023-12-04T10:36:51;2.00;99.90
18898;DHT22;9581;49.484;8.556;2023-12-04T10:39:18;1.60;99.90
18898;DHT22;9581;49.484;8.556;2023-12-04T10:41:59;1.20;99.90
18898;DHT22;9581;49.484;8.556;2023-12-04T10:44:27;1.50;99.90
18898;DHT22;9581;49.484;8.556;2023-12-04T10:46:55;1.50;99.90
18898;DHT22;9581;49.484;8.556;2023-12-04T10:49:26;1.50;99.90
18898;DHT22;9581;49.484;8.556;2023-12-04T10:51:55;1.90;99.90
18898;DHT22;9581;49.484;8.556;2023-12-04T10:54:25;2.00;99.90
18898;DHT22;9581;49.484;8.556;2023-12-04T10:56:58;1.80;99.90
18898;DHT22;9581;49.484;8.556;2023-12-04T10:59:28;2.00;99.90
18898;DHT22;9581;49.484;8.556;2023-12-04T11:02:01;2.00;99.90
18898;DHT22;9581;49.484;8.556;2023-12-04T11:04:31;2.20;99.90
18898;DHT22;9581;49.484;8.556;2023-12-04T11:06:59;2.10;99.90
18898;DHT22;9581;49.484;8.556;2023-12-04T11:09:29;2.00;99.90
18898;DHT22;9581;49.484;8.556;2023-12-04T11:12:03;2.00;99.90
18898;DHT22;9581;49.484;8.556;2023-12-04T11:14:37;1.80;99.90
18898;DHT22;9581;49.484;8.556;2023-12-04T11:17:09;2.00;99.90
18898;DHT22;9581;49.484;8.556;2023-12-04T11:19:43;1.90;99.90
18898;DHT22;9581;49.484;8.556;2023-12-04T11:22:14;2.00;99.90
18898;DHT22;9581;49.484;8.556;2023-12-04T11:24:41;1.70;99.90
18898;DHT22;9581;49.484;8.556;2023-12-04T11:27:09;1.70;99.90
18898;DHT22;9581;49.484;8.556;2023-12-04T11:29:37;1.80;99.90
18898;DHT22;9581;49.484;8.556;2023-12-04T11:32:05;1.90;99.90
18898;DHT22;9581;49.484;8.556;2023-12-04T11:34:35;1.30;99.90
18898;DHT22;9581;49.484;8.556;2023-12-04T11:37:02;1.40;99.90
18898;DHT22;9581;49.484;8.556;2023-12-04T11:39:29;1.50;99.90
18898;DHT22;9581;49.484;8.556;2023-12-04T11:41:56;1.70;99.90
18898;DHT22;9581;49.484;8.556;2023-12-04T11:44:27;1.90;99.90
18898;DHT22;9581;49.484;8.556;2023-12-04T11:46:57;1.50;99.90
18898;DHT22;9581;49.484;8.556;2023-12-04T11:49:27;1.60;99.90
18898;DHT22;9581;49.484;8.556;2023-12-04T11:51:55;1.80;99.90
18898;DHT22;9581;49.484;8.556;2023-12-04T11:54:23;1.70;99.90
18898;DHT22;9581;49.484;8.556;2023-12-04T11:57:00;1.50;99.90
18898;DHT22;9581;49.484;8.556;2023-12-04T11:59:28;1.20;99.90
18898;DHT22;9581;49.484;8.556;2023-12-04T12:01:55;1.20;99.90
18898;DHT22;9581;49.484;8.556;2023-12-04T12:04:23;1.50;99.90
18898;DHT22;9581;49.484;8.556;2023-12-04T12:06:50;1.40;99.90
18898;DHT22;9581;49.484;8.556;2023-12-04T12:09:17;1.30;99.90
18898;DHT22;9581;49.484;8.556;2023-12-04T12:11:44;1.30;99.90
18898;DHT22;9581;49.484;8.556;2023-12-04T12:14:11;1.10;99.90
18898;DHT22;9581;49.484;8.556;2023-12-04T12:16:40;1.20;99.90
18898;DHT22;9581;49.484;8.556;2023-12-04T12:19:07;1.60;99.90
18898;DHT22;9581;49.484;8.556;2023-12-04T12:21:34;1.80;99.90
18898;DHT22;9581;49.484;8.556;2023-12-04T12:24:00;1.40;99.90
18898;DHT22;9581;49.484;8.556;2023-12-04T12:26:28;1.20;99.90
18898;DHT22;9581;49.484;8.556;2023-12-04T12:28:56;1.10;99.90
18898;DHT22;9581;49.484;8.556;2023-12-04T12:31:23;1.10;99.90
18898;DHT22;9581;49.484;8.556;2023-12-04T12:33:51;1.10;99.90
18898;DHT22;9581;49.484;8.556;2023-12-04T12:36:18;1.10;99.90
18898;DHT22;9581;49.484;8.556;2023-12-04T12:38:45;1.00;99.90
18898;DHT22;9581;49.484;8.556;2023-12-04T12:41:15;1.00;99.90
18898;DHT22;9581;49.484;8.556;2023-12-04T12:43:42;1.30;99.90
18898;DHT22;9581;49.484;8.556;2023-12-04T12:46:10;1.40;99.90
18898;DHT22;9581;49.484;8.556;2023-12-04T12:48:37;1.10;99.90
18898;DHT22;9581;49.484;8.556;2023-12-04T12:51:06;1.50;99.90
18898;DHT22;9581;49.484;8.556;2023-12-04T12:53:33;1.60;99.90
18898;DHT22;9581;49.484;8.556;2023-12-04T12:56:00;1.80;99.90
18898;DHT22;9581;49.484;8.556;2023-12-04T12:58:28;1.80;99.90
18898;DHT22;9581;49.484;8.556;2023-12-04T13:00:55;2.00;99.90
18898;DHT22;9581;49.484;8.556;2023-12-04T13:03:22;1.90;99.90
18898;DHT22;9581;49.484;8.556;2023-12-04T13:05:49;1.70;99.90
18898;DHT22;9581;49.484;8.556;2023-12-04T13:08:17;1.80;99.90
18898;DHT22;9581;49.484;8.556;2023-12-04T13:10:44;1.90;99.90
18898;DHT22;9581;49.484;8.556;2023-12-04T13:13:11;2.10;99.90
18898;DHT22;9581;49.484;8.556;2023-12-04T13:15:38;2.10;99.90
18898;DHT22;9581;49.484;8.556;2023-12-04T13:18:06;2.30;99.90
18898;DHT22;9581;49.484;8.556;2023-12-04T13:20:33;2.10;99.90
18898;DHT22;9581;49.484;8.556;2023-12-04T13:23:00;2.00;99.90
18898;DHT22;9581;49.484;8.556;2023-12-04T13:25:29;2.00;99.90
18898;DHT22;9581;49.484;8.556;2023-12-04T13:27:55;2.20;99.90
18898;DHT22;9581;49.484;8.556;2023-12-04T13:30:22;2.20;99.90
18898;DHT22;9581;49.484;8.556;2023-12-04T13:32:49;1.90;99.90
18898;DHT22;9581;49.484;8.556;2023-12-04T13:35:17;2.00;99.90
18898;DHT22;9581;49.484;8.556;2023-12-04T13:37:45;2.20;99.90
18898;DHT22;9581;49.484;8.556;2023-12-04T13:40:12;2.20;99.90
18898;DHT22;9581;49.484;8.556;2023-12-04T13:42:43;2.20;99.90
18898;DHT22;9581;49.484;8.556;2023-12-04T13:45:27;2.00;99.90
18898;DHT22;9581;49.484;8.556;2023-12-04T13:47:54;2.10;99.90
18898;DHT22;9581;49.484;8.556;2023-12-04T13:50:20;2.20;99.90
18898;DHT22;9581;49.484;8.556;2023-12-04T13:52:47;2.10;99.90
18898;DHT22;9581;49.484;8.556;2023-12-04T13:55:21;2.30;99.90
18898;DHT22;9581;49.484;8.556;2023-12-04T13:58:03;2.30;99.90
18898;DHT22;9581;49.484;8.556;2023-12-04T14:00:36;1.90;99.90
18898;DHT22;9581;49.484;8.556;2023-12-04T14:03:03;2.10;99.90
18898;DHT22;9581;49.484;8.556;2023-12-04T14:05:30;2.20;99.90
18898;DHT22;9581;49.484;8.556;2023-12-04T14:07:57;2.20;99.90
18898;DHT22;9581;49.484;8.556;2023-12-04T14:10:24;2.20;99.90
18898;DHT22;9581;49.484;8.556;2023-12-04T14:12:52;2.20;99.90
18898;DHT22;9581;49.484;8.556;2023-12-04T14:15:20;2.30;99.90
18898;DHT22;9581;49.484;8.556;2023-12-04T14:17:47;2.30;99.90
18898;DHT22;9581;49.484;8.556;2023-12-04T14:20:14;2.30;99.90
18898;DHT22;9581;49.484;8.556;2023-12-04T14:22:44;2.40;99.90
18898;DHT22;9581;49.484;8.556;2023-12-04T14:25:12;2.30;99.90
18898;DHT22;9581;49.484;8.556;2023-12-04T14:27:38;2.20;99.90
18898;DHT22;9581;49.484;8.556;2023-12-04T14:30:07;1.80;99.90
18898;DHT22;9581;49.484;8.556;2023-12-04T14:32:36;2.00;99.90
18898;DHT22;9581;49.484;8.556;2023-12-04T14:35:04;2.20;99.90
18898;DHT22;9581;49.484;8.556;2023-12-04T14:37:32;1.90;99.90
18898;DHT22;9581;49.484;8.556;2023-12-04T14:39:59;2.10;99.90
18898;DHT22;9581;49.484;8.556;2023-12-04T14:42:27;1.90;99.90
18898;DHT22;9581;49.484;8.556;2023-12-04T14:44:53;1.80;99.90
18898;DHT22;9581;49.484;8.556;2023-12-04T14:47:20;1.90;99.90
18898;DHT22;9581;49.484;8.556;2023-12-04T14:49:49;2.10;99.90
18898;DHT22;9581;49.484;8.556;2023-12-04T14:52:20;1.90;99.90
18898;DHT22;9581;49.484;8.556;2023-12-04T14:54:47;2.00;99.90
18898;DHT22;9581;49.484;8.556;2023-12-04T14:57:38;1.80;99.90
18898;DHT22;9581;49.484;8.556;2023-12-04T15:00:22;1.90;99.90
18898;DHT22;9581;49.484;8.556;2023-12-04T15:03:33;2.10;99.90
18898;DHT22;9581;49.484;8.556;2023-12-04T15:06:18;2.00;99.90
18898;DHT22;9581;49.484;8.556;2023-12-04T15:08:59;2.00;99.90
18898;DHT22;9581;49.484;8.556;2023-12-04T15:12:13;2.10;99.90
18898;DHT22;9581;49.484;8.556;2023-12-04T15:14:48;2.20;99.90
18898;DHT22;9581;49.484;8.556;2023-12-04T15:17:17;2.20;99.90
18898;DHT22;9581;49.484;8.556;2023-12-04T15:19:54;2.20;99.90
18898;DHT22;9581;49.484;8.556;2023-12-04T15:22:44;2.10;99.90
18898;DHT22;9581;49.484;8.556;2023-12-04T15:25:10;1.90;99.90
18898;DHT22;9581;49.484;8.556;2023-12-04T15:27:37;1.90;99.90
18898;DHT22;9581;49.484;8.556;2023-12-04T15:30:03;2.10;99.90
18898;DHT22;9581;49.484;8.556;2023-12-04T15:32:32;2.20;99.90
18898;DHT22;9581;49.484;8.556;2023-12-04T15:34:58;2.20;99.90
18898;DHT22;9581;49.484;8.556;2023-12-04T15:37:24;2.20;99.90
18898;DHT22;9581;49.484;8.556;2023-12-04T15:39:52;2.20;99.90
18898;DHT22;9581;49.484;8.556;2023-12-04T15:42:19;2.00;99.90
18898;DHT22;9581;49.484;8.556;2023-12-04T15:44:46;1.80;99.90
18898;DHT22;9581;49.484;8.556;2023-12-04T15:47:13;1.70;99.90
18898;DHT22;9581;49.484;8.556;2023-12-04T15:49:39;1.70;99.90
18898;DHT22;9581;49.484;8.556;2023-12-04T15:52:05;1.80;99.90
18898;DHT22;9581;49.484;8.556;2023-12-04T15:54:31;1.90;99.90
18898;DHT22;9581;49.484;8.556;2023-12-04T15:56:59;2.00;99.90